Sheldon, IA

11:44 PM CDT on June 26, 2017 (GMT -0500)
Sheldon Municipal

Weather History for KSHL - May, 2013

Change the Weather History Date:

Monday, May 20, 2013

  Actual Average Record
Temperature  
Mean Temperature 62 °F -  
Max Temperature 69 °F 74 °F 93 °F (1948)
Min Temperature 55 °F 47 °F 32 °F (1993)
Degree Days  
Heating Degree Days 3    
Growing Degree Days 12 (Base 50)    
Moisture  
Dew Point 58 °F    
Average Humidity 86    
Maximum Humidity 100    
Minimum Humidity 56    
Precipitation  
Precipitation 0.08 in - - ()
Sea Level Pressure  
Sea Level Pressure 29.52 in    
Wind  
Wind Speed 11 mph (SSW)    
Max Wind Speed 26 mph    
Max Gust Speed 36 mph    
Visibility 8 miles    
Events Rain    
Averages and records for this station are not official NWS values.
T = Trace of Precipitation, MM = Missing Value Source: NWS Daily Summary

Daily Weather History Graph

Daily Weather History Graph

Search for Another Location

Airport or City:

Trip Planner

Search our weather history database for the weather conditions in past years. The results will help you decide how hot, cold, wet, or windy it might be!

Date:

Astronomy

May. 20, 2013 Rise Set
Actual Time 5:54 AM CDT 8:45 PM CDT
Civil Twilight 5:21 AM CDT 9:19 PM CDT
Nautical Twilight 4:38 AM CDT 10:01 PM CDT
Astronomical Twilight 3:49 AM CDT 10:51 PM CDT
Moon 3:47 PM CDT (5/20) 2:58 AM CDT (5/20)
Length of Visible Light 15h 58m
Length of Day
14h 51m
Waxing Gibbous, 75% of the Moon is Illuminated
May 20
Waxing Gibbous
May 24
Full
May 31
Last Quarter
Jun 8
New
Jun 16
First Quarter

Hourly Weather History & Observations

Time (CDT) Temp. Dew Point Humidity Pressure Visibility Wind Dir Wind Speed Gust Speed Precip Events Conditions
12:15 AM 62.6 °F 60.8 °F 94% 29.51 in 10.0 mi ESE 5.8 mph - N/A   Mostly Cloudy
12:35 AM 62.6 °F 60.8 °F 94% 29.50 in 9.0 mi Calm Calm - N/A   Mostly Cloudy
12:55 AM 62.6 °F 62.6 °F 100% 29.48 in 10.0 mi NE 8.1 mph - 0.01 in   Overcast
1:15 AM 62.6 °F 62.6 °F 100% 29.48 in 10.0 mi ENE 11.5 mph - N/A   Scattered Clouds
1:35 AM 60.8 °F 60.8 °F 100% 29.49 in 9.0 mi ESE 9.2 mph 15.0 mph N/A   Mostly Cloudy
1:55 AM 60.8 °F 60.8 °F 100% 29.51 in 9.0 mi SSW 11.5 mph - N/A   Overcast
2:15 AM 60.8 °F 59.0 °F 94% 29.52 in 10.0 mi SSW 9.2 mph - N/A   Overcast
2:35 AM 60.8 °F 57.2 °F 88% 29.52 in 10.0 mi SSW 5.8 mph 13.8 mph N/A   Overcast
2:55 AM 59.0 °F 59.0 °F 100% 29.52 in 10.0 mi SSW 12.7 mph - N/A   Overcast
3:15 AM 59.0 °F 59.0 °F 100% 29.51 in 9.0 mi SW 11.5 mph - N/A   Overcast
3:35 AM 59.0 °F 57.2 °F 94% 29.50 in 10.0 mi SSW 8.1 mph - N/A   Mostly Cloudy
3:55 AM 57.2 °F 57.2 °F 100% 29.50 in 7.0 mi SSW 5.8 mph - N/A   Mostly Cloudy
4:35 AM 57.2 °F 57.2 °F 100% 29.50 in 7.0 mi South 9.2 mph - N/A   Clear
4:55 AM 57.2 °F 57.2 °F 100% 29.50 in 7.0 mi South 12.7 mph - N/A   Clear
5:15 AM 57.2 °F 57.2 °F 100% 29.50 in 8.0 mi South 8.1 mph - N/A   Partly Cloudy
5:35 AM 57.2 °F 57.2 °F 100% 29.51 in 6.0 mi South 12.7 mph - N/A   Mostly Cloudy
5:55 AM 55.4 °F 55.4 °F 100% 29.51 in 2.0 mi South 9.2 mph - N/A   Mostly Cloudy
6:15 AM 57.2 °F 57.2 °F 100% 29.51 in 2.5 mi South 10.4 mph - N/A   Mostly Cloudy
6:35 AM 57.2 °F 57.2 °F 100% 29.51 in 4.0 mi South 8.1 mph - N/A   Overcast
6:55 AM 59.0 °F 59.0 °F 100% 29.51 in 5.0 mi South 9.2 mph - N/A   Overcast
7:15 AM 59.0 °F 59.0 °F 100% 29.51 in 5.0 mi South 12.7 mph - N/A   Overcast
7:35 AM 59.0 °F 59.0 °F 100% 29.51 in 6.0 mi South 11.5 mph - N/A   Mostly Cloudy
7:55 AM 59.0 °F 59.0 °F 100% 29.51 in 6.0 mi South 13.8 mph - N/A   Overcast
8:15 AM 59.0 °F 59.0 °F 100% 29.52 in 6.0 mi SSW 16.1 mph - N/A   Overcast
8:35 AM 59.0 °F 59.0 °F 100% 29.52 in 4.0 mi SSW 9.2 mph 15.0 mph N/A   Overcast
8:55 AM 59.0 °F 59.0 °F 100% 29.53 in 3.0 mi SW 11.5 mph 19.6 mph N/A   Overcast
9:15 AM 59.0 °F 59.0 °F 100% 29.53 in 10.0 mi WSW 18.4 mph - N/A   Overcast
9:35 AM 57.2 °F 57.2 °F 100% 29.54 in 2.0 mi SW 16.1 mph - N/A   Overcast
10:35 AM 60.8 °F 55.4 °F 82% 29.54 in 10.0 mi WSW 18.4 mph - N/A   Overcast
10:55 AM 62.6 °F 57.2 °F 82% 29.54 in 10.0 mi SW 20.7 mph 26.5 mph N/A   Overcast
11:15 AM 62.6 °F 55.4 °F 77% 29.54 in 10.0 mi SW 21.9 mph - N/A   Mostly Cloudy
11:35 AM 64.4 °F 55.4 °F 73% 29.55 in 10.0 mi SW 18.4 mph 25.3 mph N/A   Mostly Cloudy
11:55 AM 66.2 °F 55.4 °F 68% 29.55 in 10.0 mi SW 17.3 mph 25.3 mph N/A   Mostly Cloudy
12:15 PM 66.2 °F 55.4 °F 68% 29.55 in 10.0 mi SW 20.7 mph 28.8 mph N/A   Mostly Cloudy
12:35 PM 66.2 °F 55.4 °F 68% 29.55 in 10.0 mi SW 21.9 mph 28.8 mph N/A   Mostly Cloudy
1:15 PM 66.2 °F 53.6 °F 64% 29.55 in 10.0 mi SW 19.6 mph 31.1 mph N/A   Mostly Cloudy
1:55 PM 68.0 °F 55.4 °F 64% 29.56 in 10.0 mi SSW 19.6 mph 26.5 mph N/A   Mostly Cloudy
2:15 PM 68.0 °F 51.8 °F 56% 29.56 in 10.0 mi SSW 24.2 mph - N/A   Mostly Cloudy
2:35 PM 68.0 °F 51.8 °F 56% 29.56 in 10.0 mi SW 26.5 mph 35.7 mph N/A   Scattered Clouds
2:55 PM 68.0 °F 51.8 °F 56% 29.56 in 10.0 mi SSW 21.9 mph 29.9 mph N/A   Mostly Cloudy
3:15 PM 69.8 °F 53.6 °F 56% 29.55 in 10.0 mi SSW 17.3 mph 27.6 mph N/A   Overcast
3:35 PM 68.0 °F 51.8 °F 56% 29.55 in 10.0 mi SSW 20.7 mph 31.1 mph N/A   Overcast
3:55 PM 68.0 °F 51.8 °F 56% 29.55 in - SSW 17.3 mph 26.5 mph N/A   Overcast
4:15 PM 68.0 °F 51.8 °F 56% 29.54 in 10.0 mi SW 18.4 mph 25.3 mph N/A   Overcast
4:35 PM 68.0 °F 53.6 °F 60% 29.54 in 10.0 mi SW 17.3 mph - N/A   Overcast
4:55 PM 64.4 °F 55.4 °F 73% 29.54 in 5.0 mi WSW 11.5 mph 18.4 mph N/A Rain Light Rain
5:15 PM 60.8 °F 59.0 °F 94% 29.54 in 2.5 mi SW 15.0 mph - N/A   Mostly Cloudy
5:35 PM 62.6 °F 59.0 °F 88% 29.54 in 10.0 mi SW 8.1 mph - N/A   Overcast
5:55 PM 62.6 °F 60.8 °F 94% 29.53 in 4.0 mi SW 6.9 mph - 0.05 in Rain Light Rain
6:15 PM 62.6 °F 60.8 °F 94% 29.52 in 3.0 mi SSW 5.8 mph - N/A Rain Light Rain
6:35 PM 62.6 °F 60.8 °F 94% 29.52 in 10.0 mi SSW 4.6 mph - N/A   Overcast
6:55 PM 64.4 °F 60.8 °F 88% 29.52 in 10.0 mi South 5.8 mph - 0.02 in   Overcast
7:15 PM 64.4 °F 60.8 °F 88% 29.51 in 10.0 mi SSW 4.6 mph - N/A   Overcast
7:35 PM 64.4 °F 62.6 °F 94% 29.51 in 10.0 mi South 4.6 mph - N/A   Overcast
7:55 PM 64.4 °F 60.8 °F 88% 29.51 in 10.0 mi SSW 5.8 mph - N/A   Overcast
8:15 PM 64.4 °F 60.8 °F 88% 29.50 in 10.0 mi SW 4.6 mph - N/A   Overcast
8:35 PM 64.4 °F 60.8 °F 88% 29.50 in 10.0 mi South 5.8 mph - N/A   Overcast
9:15 PM 62.6 °F 59.0 °F 88% 29.50 in 10.0 mi South 6.9 mph - N/A   Overcast
9:35 PM 62.6 °F 59.0 °F 88% 29.51 in 10.0 mi South 6.9 mph - N/A   Overcast
9:55 PM 62.6 °F 57.2 °F 82% 29.51 in 10.0 mi SSW 9.2 mph - N/A   Overcast
10:15 PM 62.6 °F 55.4 °F 77% 29.51 in 10.0 mi SW 10.4 mph - N/A   Overcast
10:35 PM 60.8 °F 57.2 °F 88% 29.51 in 10.0 mi SW 8.1 mph 13.8 mph N/A   Overcast
10:55 PM 60.8 °F 57.2 °F 88% 29.52 in 10.0 mi WSW 9.2 mph - N/A   Overcast
11:15 PM 60.8 °F 57.2 °F 88% 29.52 in 10.0 mi WSW 10.4 mph - N/A   Overcast
11:35 PM 60.8 °F 57.2 °F 88% 29.52 in 10.0 mi SW 8.1 mph - N/A   Overcast
11:55 PM 60.8 °F 57.2 °F 88% 29.53 in 10.0 mi WSW 12.7 mph - N/A   Overcast